createdAt,value
2022-08-08T00:01:52.608Z,99781.84
2022-08-08T00:04:25.403Z,99783.50
2022-08-08T00:06:59.096Z,99774.47
2022-08-08T00:09:42.079Z,99778.69
2022-08-08T00:12:29.639Z,99779.72
2022-08-08T00:15:05.219Z,99777.88
2022-08-08T00:18:01.655Z,99774.91
2022-08-08T00:20:36.334Z,99770.00
2022-08-08T00:23:08.669Z,99774.47
2022-08-08T00:25:46.112Z,99744.72
2022-08-08T00:28:34.277Z,99766.34
2022-08-08T00:32:20.397Z,99779.72
2022-08-08T00:34:20.014Z,99770.91
2022-08-08T00:36:54.795Z,99777.06
2022-08-08T00:41:07.002Z,99764.72
2022-08-08T00:42:42.208Z,99764.91
2022-08-08T00:45:45.303Z,99765.41
2022-08-08T00:49:01.156Z,99766.59
2022-08-08T00:51:48.736Z,99766.53
2022-08-08T00:54:38.514Z,99758.72
2022-08-08T00:57:34.580Z,99762.91
2022-08-08T01:00:10.801Z,99779.97
2022-08-08T01:03:58.833Z,99787.97
2022-08-08T01:06:27.426Z,99785.25
2022-08-08T01:09:34.829Z,99793.78
2022-08-08T01:12:36.778Z,99783.66
2022-08-08T01:15:43.250Z,99788.53
2022-08-08T01:18:53.815Z,99785.69
2022-08-08T01:22:10.021Z,99790.06
2022-08-08T01:24:57.367Z,99780.06
2022-08-08T01:27:46.141Z,99771.59
2022-08-08T01:30:38.896Z,99773.84
2022-08-08T01:33:24.321Z,99775.78
2022-08-08T01:36:18.989Z,99778.97
2022-08-08T01:39:08.225Z,99781.13
2022-08-08T01:41:58.022Z,99777.88
2022-08-08T01:44:36.479Z,99774.94
2022-08-08T01:47:59.095Z,99783.06
2022-08-08T01:50:07.984Z,99776.03
2022-08-08T01:54:05.085Z,99774.97
2022-08-08T01:56:28.355Z,99772.53
2022-08-08T01:58:39.639Z,99776.91
2022-08-08T02:02:00.260Z,99772.44
2022-08-08T02:04:30.060Z,99779.34
2022-08-08T02:07:02.029Z,99782.53
2022-08-08T02:10:04.053Z,99782.44
2022-08-08T02:12:49.643Z,99789.84
2022-08-08T02:15:26.670Z,99792.53
2022-08-08T02:18:01.445Z,99796.59
2022-08-08T02:21:00.024Z,99790.53
2022-08-08T02:23:32.037Z,99791.44
2022-08-08T02:26:10.173Z,99795.41
2022-08-08T02:28:51.783Z,99795.69
2022-08-08T02:31:58.053Z,99792.56
2022-08-08T02:34:27.705Z,99790.03
2022-08-08T02:37:51.943Z,99800.19
2022-08-08T02:40:05.515Z,99789.78
2022-08-08T02:44:38.479Z,99793.00
2022-08-08T02:46:18.913Z,99794.13
2022-08-08T02:49:05.199Z,99803.47
2022-08-08T02:51:58.696Z,99798.88
2022-08-08T02:54:50.727Z,99800.88
2022-08-08T02:57:45.082Z,99795.03
2022-08-08T03:00:31.684Z,99801.94
2022-08-08T03:05:01.072Z,99807.44
2022-08-08T03:06:35.054Z,99801.81
2022-08-08T03:09:23.892Z,99806.94
2022-08-08T03:12:15.923Z,99817.38
2022-08-08T03:15:59.071Z,99809.03
2022-08-08T03:17:59.954Z,99820.16
2022-08-08T03:20:52.077Z,99819.91
2022-08-08T03:23:56.253Z,99833.91
2022-08-08T03:26:23.439Z,99828.09
2022-08-08T03:28:54.954Z,99829.22
2022-08-08T03:32:05.888Z,99832.03
2022-08-08T03:34:31.204Z,99826.88
2022-08-08T03:37:00.189Z,99829.47
2022-08-08T03:39:30.905Z,99836.97
2022-08-08T03:42:29.102Z,99832.00
2022-08-08T03:44:56.249Z,99837.22
2022-08-08T03:47:45.127Z,99844.88
2022-08-08T03:50:20.111Z,99843.34
2022-08-08T03:52:53.441Z,99835.22
2022-08-08T03:55:55.995Z,99841.28
2022-08-08T03:58:35.446Z,99846.84
2022-08-08T04:01:24.510Z,99853.78
2022-08-08T04:04:01.682Z,99858.09
2022-08-08T04:06:37.382Z,99856.19
2022-08-08T04:09:11.527Z,99858.81
2022-08-08T04:11:57.785Z,99854.88
2022-08-08T04:14:50.583Z,99862.03
2022-08-08T04:17:46.129Z,99861.91
2022-08-08T04:20:09.578Z,99864.78
2022-08-08T04:22:41.420Z,99866.06
2022-08-08T04:25:13.100Z,99857.53
2022-08-08T04:28:34.264Z,99861.72
2022-08-08T04:30:36.554Z,99868.38
2022-08-08T04:33:15.428Z,99868.81
2022-08-08T04:35:50.659Z,99869.44
2022-08-08T04:38:22.189Z,99865.69
2022-08-08T04:40:54.897Z,99867.25
2022-08-08T04:43:31.611Z,99872.75
2022-08-08T04:46:15.895Z,99868.53
2022-08-08T04:48:47.760Z,99884.34
2022-08-08T04:51:17.362Z,99890.81
2022-08-08T04:54:39.463Z,99886.53
2022-08-08T04:56:41.436Z,99891.72
2022-08-08T04:59:15.639Z,99894.47
2022-08-08T05:01:48.688Z,99885.75
2022-08-08T05:04:19.709Z,99895.44
2022-08-08T05:06:50.594Z,99901.72
2022-08-08T05:09:21.589Z,99903.38
2022-08-08T05:11:57.292Z,99902.91
2022-08-08T05:14:30.288Z,99895.88
2022-08-08T05:17:08.958Z,99894.91
2022-08-08T05:20:09.446Z,99905.22
2022-08-08T05:22:35.039Z,99905.72
2022-08-08T05:25:04.569Z,99898.50
2022-08-08T05:27:41.393Z,99899.75
2022-08-08T05:30:13.501Z,99900.09
2022-08-08T05:32:54.118Z,99908.78
2022-08-08T05:35:23.953Z,99908.84
2022-08-08T05:37:58.850Z,99909.69
2022-08-08T05:40:37.678Z,99920.34
2022-08-08T05:43:38.151Z,99916.94
2022-08-08T05:46:08.694Z,99923.34
2022-08-08T05:48:41.704Z,99910.41
2022-08-08T05:51:15.696Z,99914.28
2022-08-08T05:54:26.204Z,99914.59
2022-08-08T05:56:47.131Z,99911.53
2022-08-08T06:00:01.055Z,99911.56
2022-08-08T06:02:43.549Z,99916.22
2022-08-08T06:05:34.349Z,99918.59
2022-08-08T06:08:28.514Z,99922.91
2022-08-08T06:11:04.234Z,99924.81
2022-08-08T06:13:36.495Z,99924.94
2022-08-08T06:16:16.806Z,99932.16
2022-08-08T06:19:25.655Z,99937.41
2022-08-08T06:21:57.302Z,99933.91
2022-08-08T06:24:47.275Z,99942.47
2022-08-08T06:27:26.751Z,99941.28
2022-08-08T06:30:00.794Z,99940.69
2022-08-08T06:32:47.808Z,99945.97
2022-08-08T06:36:06.567Z,99942.41
2022-08-08T06:38:14.012Z,99946.38
2022-08-08T06:40:48.400Z,99954.25
2022-08-08T06:43:21.062Z,99960.38
2022-08-08T06:46:03.033Z,99953.75
2022-08-08T06:48:31.596Z,99954.97
2022-08-08T06:51:07.579Z,99956.03
2022-08-08T06:53:50.806Z,99960.91
2022-08-08T06:56:31.238Z,99967.22
2022-08-08T06:59:00.829Z,99969.66
2022-08-08T07:02:16.922Z,99979.03
2022-08-08T07:04:37.065Z,99971.34
2022-08-08T07:07:13.963Z,99972.28
2022-08-08T07:09:56.370Z,99973.72
2022-08-08T07:12:39.654Z,99971.25
2022-08-08T07:15:32.359Z,99972.66
2022-08-08T07:18:36.476Z,99971.09
2022-08-08T07:20:55.643Z,99972.19
2022-08-08T07:24:02.167Z,99979.97
2022-08-08T07:26:32.747Z,99971.28
2022-08-08T07:29:05.862Z,99969.81
2022-08-08T07:31:37.296Z,99982.91
2022-08-08T07:34:08.872Z,99984.47
2022-08-08T07:36:41.873Z,99983.22
2022-08-08T07:39:22.541Z,99977.59
2022-08-08T07:42:05.122Z,99984.19
2022-08-08T07:44:40.246Z,99987.00
2022-08-08T07:47:11.655Z,99988.97
2022-08-08T07:49:42.085Z,99983.59
2022-08-08T07:52:22.989Z,99987.56
2022-08-08T07:54:59.805Z,99979.38
2022-08-08T07:57:36.108Z,99991.44
2022-08-08T08:00:16.194Z,99987.94
2022-08-08T08:03:06.579Z,99986.56
2022-08-08T08:05:42.094Z,99980.50
2022-08-08T08:08:16.800Z,99992.16
2022-08-08T08:10:51.773Z,99988.91
2022-08-08T08:13:42.846Z,99993.56
2022-08-08T08:16:19.461Z,99992.03
2022-08-08T08:18:56.488Z,100002.75
2022-08-08T08:21:44.195Z,99999.56
2022-08-08T08:24:32.433Z,99982.63
2022-08-08T08:27:04.355Z,99988.69
2022-08-08T08:29:38.685Z,99994.19
2022-08-08T08:32:09.036Z,99986.91
2022-08-08T08:34:43.397Z,99987.25
2022-08-08T08:37:30.628Z,99994.63
2022-08-08T08:40:02.807Z,99997.41
2022-08-08T08:42:38.838Z,99994.06
2022-08-08T08:45:21.203Z,100001.38
2022-08-08T08:47:54.741Z,99998.41
2022-08-08T08:50:32.559Z,99998.41
2022-08-08T08:53:26.957Z,100001.50
2022-08-08T08:56:02.366Z,99990.84
2022-08-08T08:58:42.929Z,99988.72
2022-08-08T09:01:16.776Z,99988.53
2022-08-08T09:03:50.884Z,99994.34
2022-08-08T09:06:33.657Z,100010.97
2022-08-08T09:09:07.432Z,100000.28
2022-08-08T09:12:02.213Z,100000.00
2022-08-08T09:14:42.859Z,99999.13
2022-08-08T09:17:18.806Z,99998.31
2022-08-08T09:21:58.837Z,100005.66
2022-08-08T09:22:39.427Z,100013.38
2022-08-08T09:25:11.101Z,100003.22
2022-08-08T09:27:56.724Z,100006.44
2022-08-08T09:30:32.922Z,100001.97
2022-08-08T09:33:55.620Z,100005.44
2022-08-08T09:35:54.520Z,100004.47
2022-08-08T09:38:32.754Z,99998.84
2022-08-08T09:41:06.355Z,99994.19
2022-08-08T09:44:04.964Z,100004.50
2022-08-08T09:46:31.257Z,99996.59
2022-08-08T09:49:18.572Z,100005.75
2022-08-08T09:52:07.156Z,99999.88
2022-08-08T09:54:42.162Z,100014.22
2022-08-08T09:57:16.435Z,100008.69
2022-08-08T10:00:02.530Z,100005.97
2022-08-08T10:02:44.808Z,100010.06
2022-08-08T10:05:15.520Z,100012.03
2022-08-08T10:08:00.283Z,100008.31
2022-08-08T10:10:31.825Z,100004.84
2022-08-08T10:13:14.377Z,100015.47
2022-08-08T10:16:00.310Z,100018.78
2022-08-08T10:18:33.024Z,100013.81
2022-08-08T10:21:23.307Z,100012.25
2022-08-08T10:23:58.422Z,100017.78
2022-08-08T10:26:51.959Z,100021.22
2022-08-08T10:29:23.582Z,100015.91
2022-08-08T10:32:15.545Z,100018.38
2022-08-08T10:34:58.777Z,100014.09
2022-08-08T10:37:34.714Z,100017.16
2022-08-08T10:40:16.535Z,100018.56
2022-08-08T10:42:46.466Z,100023.25
2022-08-08T10:45:17.031Z,100022.69
2022-08-08T10:47:55.286Z,100014.91
2022-08-08T10:50:32.597Z,100015.63
2022-08-08T10:53:07.792Z,100018.31
2022-08-08T10:55:45.721Z,100026.31
2022-08-08T10:58:16.145Z,100023.19
2022-08-08T11:00:52.694Z,100019.47
2022-08-08T11:04:01.508Z,100027.72
2022-08-08T11:06:34.676Z,100008.38
2022-08-08T11:09:09.774Z,100018.63
2022-08-08T11:12:05.355Z,100011.13
2022-08-08T11:14:49.167Z,100000.63
2022-08-08T11:17:18.227Z,99993.78
2022-08-08T11:20:12.441Z,99993.69
2022-08-08T11:22:43.604Z,99992.66
2022-08-08T11:25:16.350Z,99984.44
2022-08-08T11:27:48.906Z,99995.88
2022-08-08T11:30:20.498Z,99991.63
2022-08-08T11:32:54.378Z,100008.66
2022-08-08T11:35:38.490Z,100000.66
2022-08-08T11:38:36.587Z,99992.06
2022-08-08T11:41:02.817Z,100002.41
2022-08-08T11:43:38.500Z,100007.44
2022-08-08T11:46:17.820Z,100002.50
2022-08-08T11:48:47.987Z,100005.28
2022-08-08T11:51:38.438Z,100017.94
2022-08-08T11:54:26.928Z,100008.69
2022-08-08T11:56:58.313Z,100006.44
2022-08-08T11:59:58.698Z,100004.00
2022-08-08T12:02:32.675Z,100009.47
2022-08-08T12:05:03.358Z,100000.22
2022-08-08T12:07:31.896Z,100007.41
2022-08-08T12:10:12.712Z,100008.66
2022-08-08T12:12:45.776Z,100010.19
2022-08-08T12:15:15.025Z,100011.72
2022-08-08T12:17:50.980Z,100010.88
2022-08-08T12:20:19.797Z,100006.34
2022-08-08T12:22:49.456Z,100022.41
2022-08-08T12:25:24.707Z,100006.88
2022-08-08T12:28:14.357Z,100006.78
2022-08-08T12:30:47.900Z,99990.63
2022-08-08T12:33:21.315Z,100004.53
2022-08-08T12:35:52.757Z,100000.94
2022-08-08T12:38:31.181Z,100010.41
2022-08-08T12:41:10.584Z,100020.75
2022-08-08T12:44:00.640Z,100019.06
2022-08-08T12:46:29.885Z,100010.19
2022-08-08T12:49:25.124Z,100010.16
2022-08-08T12:51:58.394Z,100007.19
2022-08-08T12:54:29.198Z,100006.06
2022-08-08T12:56:58.789Z,99995.16
2022-08-08T12:59:44.586Z,100001.38
2022-08-08T13:02:28.108Z,100001.94
2022-08-08T13:04:58.102Z,99997.81
2022-08-08T13:08:03.982Z,99993.50
2022-08-08T13:10:32.754Z,100004.47
2022-08-08T13:13:05.552Z,100001.69
2022-08-08T13:15:34.993Z,100001.84
2022-08-08T13:18:11.164Z,99997.47
2022-08-08T13:20:45.582Z,100009.53
2022-08-08T13:23:41.273Z,100004.53
2022-08-08T13:26:14.365Z,100004.50
2022-08-08T13:28:45.857Z,100001.38
2022-08-08T13:31:17.594Z,100011.31
2022-08-08T13:33:50.245Z,100019.03
2022-08-08T13:36:26.005Z,100014.75
2022-08-08T13:39:00.167Z,100019.72
2022-08-08T13:41:38.846Z,100008.97
2022-08-08T13:44:19.361Z,100003.81
2022-08-08T13:46:55.882Z,100002.75
2022-08-08T13:50:35.640Z,100005.59
2022-08-08T13:52:28.651Z,99996.75
2022-08-08T13:55:07.214Z,100007.78
2022-08-08T13:58:06.988Z,100016.31
2022-08-08T14:00:27.015Z,99998.75
2022-08-08T14:02:58.670Z,100004.09
2022-08-08T14:05:29.064Z,99991.44
2022-08-08T14:08:06.432Z,99990.88
2022-08-08T14:10:45.635Z,100000.22
2022-08-08T14:13:31.056Z,100002.88
2022-08-08T14:16:04.872Z,99998.13
2022-08-08T14:18:53.335Z,99997.97
2022-08-08T14:21:22.815Z,100001.03
2022-08-08T14:24:06.573Z,99995.13
2022-08-08T14:26:38.435Z,100000.47
2022-08-08T14:29:26.744Z,99996.28
2022-08-08T14:32:10.793Z,99995.78
2022-08-08T14:34:42.662Z,99995.00
2022-08-08T14:37:15.919Z,100002.09
2022-08-08T14:39:48.633Z,99996.59
2022-08-08T14:42:18.000Z,99996.84
2022-08-08T14:46:01.959Z,100000.28
2022-08-08T14:48:34.311Z,100001.78
2022-08-08T14:51:07.755Z,99997.84
2022-08-08T14:53:37.266Z,99999.25
2022-08-08T14:56:25.197Z,99999.50
2022-08-08T14:58:54.221Z,100002.50
2022-08-08T15:01:27.889Z,99989.78
2022-08-08T15:04:09.760Z,99992.09
2022-08-08T15:06:39.150Z,99982.66
2022-08-08T15:09:11.342Z,99991.13
2022-08-08T15:11:46.447Z,99986.06
2022-08-08T15:14:26.634Z,99990.16
2022-08-08T15:16:56.922Z,99992.06
2022-08-08T15:19:27.831Z,99989.81
2022-08-08T15:21:57.721Z,99982.75
2022-08-08T15:24:31.697Z,99983.34
2022-08-08T15:27:11.980Z,99975.75
2022-08-08T15:29:48.860Z,99986.38
2022-08-08T15:32:20.745Z,99978.66
2022-08-08T15:34:51.049Z,99976.63
2022-08-08T15:37:19.442Z,99984.38
2022-08-08T15:39:48.215Z,99982.91
2022-08-08T15:42:31.181Z,99982.81
2022-08-08T15:45:01.392Z,99991.13
2022-08-08T15:47:32.395Z,99983.09
2022-08-08T15:50:04.511Z,99981.53
2022-08-08T15:52:36.669Z,99981.97
2022-08-08T15:55:09.568Z,99986.84
2022-08-08T15:57:40.129Z,99985.22
2022-08-08T16:00:27.459Z,99980.44
2022-08-08T16:02:57.948Z,99974.97
2022-08-08T16:05:35.250Z,99971.41
2022-08-08T16:08:04.608Z,99979.47
2022-08-08T16:13:09.303Z,99976.75
2022-08-08T16:13:34.411Z,99977.72
2022-08-08T16:16:17.855Z,99975.97
2022-08-08T16:18:56.205Z,99981.56
2022-08-08T16:21:31.566Z,99980.78
2022-08-08T16:24:02.345Z,99978.53
2022-08-08T16:26:33.865Z,99985.47
2022-08-08T16:29:09.039Z,99981.69
2022-08-08T16:31:48.790Z,99994.97
2022-08-08T16:34:19.799Z,99990.16
2022-08-08T16:36:50.957Z,99991.72
2022-08-08T16:40:00.792Z,99995.41
2022-08-08T16:42:18.339Z,100000.16
2022-08-08T16:44:54.622Z,99999.53
2022-08-08T16:47:41.426Z,100005.66
2022-08-08T16:50:14.961Z,100005.00
2022-08-08T16:55:00.524Z,100007.19
2022-08-08T16:55:55.915Z,100006.16
2022-08-08T16:58:29.310Z,100011.91
2022-08-08T17:01:02.978Z,100006.38
2022-08-08T17:04:01.340Z,100017.22
2022-08-08T17:06:36.282Z,100010.03
2022-08-08T17:09:14.806Z,100012.59
2022-08-08T17:11:49.060Z,100013.91
2022-08-08T17:14:27.555Z,100022.56
2022-08-08T17:17:03.118Z,100028.56
2022-08-08T17:19:41.096Z,100032.88
2022-08-08T17:22:10.897Z,100036.13
2022-08-08T17:24:53.625Z,100038.63
2022-08-08T17:27:29.011Z,100040.06
2022-08-08T17:30:27.318Z,100034.97
2022-08-08T17:34:36.684Z,100029.56
2022-08-08T17:35:53.706Z,100029.63
2022-08-08T17:38:24.834Z,100034.47
2022-08-08T17:41:00.649Z,100028.16
2022-08-08T17:43:30.709Z,100031.25
2022-08-08T17:46:38.511Z,100026.00
2022-08-08T17:49:07.507Z,100025.66
2022-08-08T17:51:38.545Z,100023.38
2022-08-08T17:54:13.906Z,100028.28
2022-08-08T17:56:52.689Z,100031.22
2022-08-08T17:59:23.480Z,100034.09
2022-08-08T18:01:59.908Z,100031.69
2022-08-08T18:04:33.113Z,100021.25
2022-08-08T18:07:06.001Z,100024.81
2022-08-08T18:09:54.411Z,100020.72
2022-08-08T18:12:24.115Z,100027.41
2022-08-08T18:14:52.970Z,100032.88
2022-08-08T18:17:28.568Z,100037.81
2022-08-08T18:20:37.280Z,100035.47
2022-08-08T18:23:03.419Z,100038.97
2022-08-08T18:25:37.462Z,100038.38
2022-08-08T18:28:07.605Z,100041.44
2022-08-08T18:30:42.638Z,100053.81
2022-08-08T18:33:36.296Z,100044.41
2022-08-08T18:36:02.987Z,100044.97
2022-08-08T18:38:32.366Z,100044.22
2022-08-08T18:41:03.311Z,100049.84
2022-08-08T18:43:37.804Z,100041.97
2022-08-08T18:46:54.198Z,100043.22
2022-08-08T18:49:00.366Z,100044.81
2022-08-08T18:51:52.553Z,100032.13
2022-08-08T18:54:22.498Z,100032.28
2022-08-08T18:56:53.887Z,100029.31
2022-08-08T18:59:23.601Z,100030.66
2022-08-08T19:02:24.933Z,100031.63
2022-08-08T19:04:42.837Z,100039.38
2022-08-08T19:07:12.238Z,100032.06
2022-08-08T19:09:49.658Z,100034.25
2022-08-08T19:12:29.513Z,100030.31
2022-08-08T19:14:59.318Z,100034.56
2022-08-08T19:17:29.389Z,100022.66
2022-08-08T19:20:16.443Z,100022.59
2022-08-08T19:22:44.740Z,100016.50
2022-08-08T19:26:01.515Z,100019.50
2022-08-08T19:28:01.864Z,100024.66
2022-08-08T19:30:31.902Z,100021.75
2022-08-08T19:33:00.895Z,100009.75
2022-08-08T19:35:44.969Z,100005.75
2022-08-08T19:38:22.232Z,100010.03
2022-08-08T19:40:55.775Z,100014.28
2022-08-08T19:43:28.197Z,100008.28
2022-08-08T19:46:01.204Z,100005.34
2022-08-08T19:48:31.265Z,100017.22
2022-08-08T19:51:01.184Z,100017.66
2022-08-08T19:53:51.220Z,100014.38
2022-08-08T19:56:25.738Z,100015.13
2022-08-08T19:59:07.587Z,100015.41
2022-08-08T20:02:01.910Z,100007.25
2022-08-08T20:04:26.850Z,100018.84
2022-08-08T20:06:56.678Z,100018.88
2022-08-08T20:09:25.777Z,100020.50
2022-08-08T20:12:00.684Z,100019.47
2022-08-08T20:14:34.017Z,100018.91
2022-08-08T20:17:05.420Z,100020.22
2022-08-08T20:19:34.712Z,100020.50
2022-08-08T20:22:20.750Z,100020.91
2022-08-08T20:24:54.919Z,100018.25
2022-08-08T20:27:23.610Z,100009.69
2022-08-08T20:30:00.242Z,100003.06
2022-08-08T20:32:33.712Z,99989.69
2022-08-08T20:35:02.786Z,99987.78
2022-08-08T20:37:47.238Z,99986.75
2022-08-08T20:40:33.520Z,99986.94
2022-08-08T20:43:16.057Z,100004.34
2022-08-08T20:45:57.271Z,100010.81
2022-08-08T20:48:32.047Z,100027.44
2022-08-08T20:51:00.318Z,100016.09
2022-08-08T20:53:59.090Z,100009.47
2022-08-08T20:56:17.325Z,100014.00
2022-08-08T20:58:47.645Z,100004.50
2022-08-08T21:01:19.635Z,99995.41
2022-08-08T21:03:59.662Z,100004.50
2022-08-08T21:06:52.954Z,99989.34
2022-08-08T21:09:16.882Z,99999.28
2022-08-08T21:11:51.358Z,100002.84
2022-08-08T21:14:33.709Z,99997.06
2022-08-08T21:17:06.103Z,99992.09
2022-08-08T21:19:45.174Z,99995.59
2022-08-08T21:22:15.424Z,99999.75
2022-08-08T21:24:52.466Z,100000.38
2022-08-08T21:28:05.324Z,99986.72
2022-08-08T21:30:18.596Z,99991.88
2022-08-08T21:32:52.232Z,99995.78
2022-08-08T21:36:14.405Z,99996.63
2022-08-08T21:38:18.281Z,100003.25
2022-08-08T21:40:56.026Z,100006.75
2022-08-08T21:43:33.336Z,100001.81
2022-08-08T21:48:05.441Z,99994.56
2022-08-08T21:48:53.048Z,99995.41
2022-08-08T21:54:33.712Z,100009.81
2022-08-08T21:54:36.224Z,100025.88
2022-08-08T21:57:01.679Z,100021.19
2022-08-08T22:00:01.982Z,99999.53
2022-08-08T22:02:23.496Z,100001.31
2022-08-08T22:04:53.601Z,100018.69
2022-08-08T22:07:34.634Z,100054.47
2022-08-08T22:10:09.530Z,100085.09
2022-08-08T22:12:39.269Z,100105.09
2022-08-08T22:15:09.161Z,100120.06
2022-08-08T22:17:45.303Z,100131.28
2022-08-08T22:20:18.872Z,100118.78
2022-08-08T22:22:53.815Z,100098.91
2022-08-08T22:25:25.498Z,100089.22
2022-08-08T22:28:03.099Z,100089.22
2022-08-08T22:30:50.991Z,100065.69
2022-08-08T22:34:11.186Z,100061.28
2022-08-08T22:36:12.346Z,100042.31
2022-08-08T22:38:48.176Z,100028.75
2022-08-08T22:41:21.034Z,100021.56
2022-08-08T22:44:03.003Z,99992.50
2022-08-08T22:46:34.283Z,100005.22
2022-08-08T22:49:09.002Z,100012.31
2022-08-08T22:51:42.575Z,100008.88
2022-08-08T22:54:30.321Z,100009.47
2022-08-08T22:57:11.724Z,100000.78
2022-08-08T22:59:52.741Z,100010.38
2022-08-08T23:02:29.200Z,99989.44
2022-08-08T23:04:58.500Z,100000.56
2022-08-08T23:07:51.389Z,99997.31
2022-08-08T23:10:25.595Z,99989.03
2022-08-08T23:12:56.144Z,99997.69
2022-08-08T23:16:38.199Z,99993.75
2022-08-08T23:18:13.378Z,99990.66
2022-08-08T23:20:43.560Z,99992.28
2022-08-08T23:23:12.749Z,99989.94
2022-08-08T23:25:48.538Z,99991.63
2022-08-08T23:28:18.799Z,99995.03
2022-08-08T23:30:48.113Z,99988.53
2022-08-08T23:33:19.305Z,99997.44
2022-08-08T23:36:08.761Z,99988.16
2022-08-08T23:38:44.117Z,100006.53
2022-08-08T23:41:23.013Z,100019.03
2022-08-08T23:43:56.080Z,100026.28
2022-08-08T23:49:05.466Z,100046.53
2022-08-08T23:49:18.318Z,100051.13
2022-08-08T23:52:06.446Z,100062.03
2022-08-08T23:54:42.510Z,100053.78
2022-08-08T23:57:26.622Z,100048.06
